sensor_id;sensor_type;location;lat;lon;timestamp;pressure;altitude;pressure_sealevel;temperature;humidity
77587;BME280;66744;49.716;17.158;2023-06-04T00:02:03;99392.50;;;10.94;57.88
77587;BME280;66744;49.716;17.158;2023-06-04T00:05:05;99389.75;;;10.94;58.67
77587;BME280;66744;49.716;17.158;2023-06-04T00:08:06;99382.22;;;10.98;58.15
77587;BME280;66744;49.716;17.158;2023-06-04T00:11:08;99386.75;;;11.05;56.21
77587;BME280;66744;49.716;17.158;2023-06-04T00:14:12;99372.91;;;11.08;56.04
77587;BME280;66744;49.716;17.158;2023-06-04T00:17:14;99371.09;;;11.02;56.89
77587;BME280;66744;49.716;17.158;2023-06-04T00:20:17;99357.53;;;10.79;58.29
77587;BME280;66744;49.716;17.158;2023-06-04T00:23:19;99358.75;;;10.78;58.47
77587;BME280;66744;49.716;17.158;2023-06-04T00:26:23;99372.78;;;10.64;60.12
77587;BME280;66744;49.716;17.158;2023-06-04T00:29:24;99362.19;;;10.46;60.73
77587;BME280;66744;49.716;17.158;2023-06-04T00:32:26;99350.53;;;10.22;61.42
77587;BME280;66744;49.716;17.158;2023-06-04T00:35:27;99357.50;;;10.07;61.21
77587;BME280;66744;49.716;17.158;2023-06-04T00:38:28;99361.03;;;10.07;61.78
77587;BME280;66744;49.716;17.158;2023-06-04T00:41:30;99362.13;;;10.10;61.31
77587;BME280;66744;49.716;17.158;2023-06-04T00:44:31;99362.31;;;10.23;60.19
77587;BME280;66744;49.716;17.158;2023-06-04T00:47:37;99357.00;;;10.32;59.40
77587;BME280;66744;49.716;17.158;2023-06-04T00:50:39;99353.41;;;10.35;60.17
77587;BME280;66744;49.716;17.158;2023-06-04T00:53:40;99355.56;;;10.27;60.43
77587;BME280;66744;49.716;17.158;2023-06-04T00:56:41;99355.34;;;10.18;60.03
77587;BME280;66744;49.716;17.158;2023-06-04T00:59:43;99347.09;;;9.98;60.84
77587;BME280;66744;49.716;17.158;2023-06-04T01:02:47;99346.47;;;9.91;62.03
77587;BME280;66744;49.716;17.158;2023-06-04T01:06:08;99349.84;;;9.79;62.42
77587;BME280;66744;49.716;17.158;2023-06-04T01:09:14;99345.81;;;9.44;63.05
77587;BME280;66744;49.716;17.158;2023-06-04T01:12:18;99354.69;;;9.28;64.19
77587;BME280;66744;49.716;17.158;2023-06-04T01:15:19;99352.88;;;9.41;63.39
77587;BME280;66744;49.716;17.158;2023-06-04T01:18:27;99348.34;;;9.55;63.60
77587;BME280;66744;49.716;17.158;2023-06-04T01:21:32;99355.16;;;9.66;62.77
77587;BME280;66744;49.716;17.158;2023-06-04T01:24:37;99359.31;;;9.74;62.73
77587;BME280;66744;49.716;17.158;2023-06-04T01:27:42;99352.88;;;9.84;62.94
77587;BME280;66744;49.716;17.158;2023-06-04T01:30:46;99354.06;;;9.83;62.60
77587;BME280;66744;49.716;17.158;2023-06-04T01:33:55;99349.91;;;9.75;63.77
77587;BME280;66744;49.716;17.158;2023-06-04T01:36:59;99347.66;;;9.70;63.27
77587;BME280;66744;49.716;17.158;2023-06-04T01:40:01;99348.13;;;9.65;62.97
77587;BME280;66744;49.716;17.158;2023-06-04T01:43:02;99347.16;;;9.75;62.74
77587;BME280;66744;49.716;17.158;2023-06-04T01:46:04;99346.44;;;9.71;62.72
77587;BME280;66744;49.716;17.158;2023-06-04T01:49:07;99349.97;;;9.52;64.63
77587;BME280;66744;49.716;17.158;2023-06-04T01:52:08;99354.50;;;9.16;64.42
77587;BME280;66744;49.716;17.158;2023-06-04T01:55:12;99347.00;;;8.97;66.14
77587;BME280;66744;49.716;17.158;2023-06-04T01:58:15;99345.16;;;8.90;65.35
77587;BME280;66744;49.716;17.158;2023-06-04T02:01:19;99337.28;;;8.92;64.25
77587;BME280;66744;49.716;17.158;2023-06-04T02:04:20;99340.31;;;8.98;63.42
77587;BME280;66744;49.716;17.158;2023-06-04T02:07:24;99347.94;;;8.86;64.01
77587;BME280;66744;49.716;17.158;2023-06-04T02:10:27;99340.91;;;8.85;65.14
77587;BME280;66744;49.716;17.158;2023-06-04T02:13:28;99347.72;;;9.01;63.71
77587;BME280;66744;49.716;17.158;2023-06-04T02:16:30;99349.13;;;9.09;64.19
77587;BME280;66744;49.716;17.158;2023-06-04T02:19:32;99350.16;;;9.18;63.85
77587;BME280;66744;49.716;17.158;2023-06-04T02:22:35;99342.81;;;9.12;63.80
77587;BME280;66744;49.716;17.158;2023-06-04T02:25:36;99344.91;;;9.04;64.15
77587;BME280;66744;49.716;17.158;2023-06-04T02:28:37;99349.63;;;9.04;65.07
77587;BME280;66744;49.716;17.158;2023-06-04T02:31:39;99355.34;;;9.13;64.58
77587;BME280;66744;49.716;17.158;2023-06-04T02:34:40;99350.06;;;9.02;64.36
77587;BME280;66744;49.716;17.158;2023-06-04T02:37:42;99353.81;;;8.85;64.52
77587;BME280;66744;49.716;17.158;2023-06-04T02:40:43;99349.66;;;8.77;65.27
77587;BME280;66744;49.716;17.158;2023-06-04T02:43:46;99350.13;;;8.72;65.51
77587;BME280;66744;49.716;17.158;2023-06-04T02:46:47;99342.88;;;8.85;65.25
77587;BME280;66744;49.716;17.158;2023-06-04T02:49:48;99350.09;;;8.99;64.54
77587;BME280;66744;49.716;17.158;2023-06-04T02:52:50;99351.66;;;9.00;64.21
77587;BME280;66744;49.716;17.158;2023-06-04T02:55:51;99364.41;;;9.10;64.28
77587;BME280;66744;49.716;17.158;2023-06-04T02:58:54;99358.88;;;9.13;63.66
77587;BME280;66744;49.716;17.158;2023-06-04T03:01:56;99366.34;;;9.09;63.15
77587;BME280;66744;49.716;17.158;2023-06-04T03:04:58;99364.75;;;9.12;63.73
77587;BME280;66744;49.716;17.158;2023-06-04T03:08:01;99362.31;;;9.17;63.71
77587;BME280;66744;49.716;17.158;2023-06-04T03:11:03;99365.00;;;9.21;62.76
77587;BME280;66744;49.716;17.158;2023-06-04T03:14:04;99355.34;;;9.13;63.28
77587;BME280;66744;49.716;17.158;2023-06-04T03:17:06;99377.75;;;9.08;63.06
77587;BME280;66744;49.716;17.158;2023-06-04T03:20:14;99369.41;;;9.15;62.58
77587;BME280;66744;49.716;17.158;2023-06-04T03:23:16;99378.28;;;9.22;63.22
77587;BME280;66744;49.716;17.158;2023-06-04T03:26:17;99371.19;;;9.25;63.34
77587;BME280;66744;49.716;17.158;2023-06-04T03:29:19;99377.47;;;9.25;62.59
77587;BME280;66744;49.716;17.158;2023-06-04T03:32:23;99376.28;;;9.26;63.25
77587;BME280;66744;49.716;17.158;2023-06-04T03:35:25;99389.06;;;9.33;63.23
77587;BME280;66744;49.716;17.158;2023-06-04T03:38:27;99379.22;;;9.35;63.27
77587;BME280;66744;49.716;17.158;2023-06-04T03:41:28;99390.81;;;9.46;63.61
77587;BME280;66744;49.716;17.158;2023-06-04T03:44:31;99393.94;;;9.45;63.50
77587;BME280;66744;49.716;17.158;2023-06-04T03:47:32;99395.28;;;9.37;63.70
77587;BME280;66744;49.716;17.158;2023-06-04T03:50:34;99385.88;;;9.38;63.31
77587;BME280;66744;49.716;17.158;2023-06-04T03:53:36;99391.47;;;9.31;64.78
77587;BME280;66744;49.716;17.158;2023-06-04T03:56:38;99396.84;;;9.38;64.71
77587;BME280;66744;49.716;17.158;2023-06-04T03:59:41;99392.25;;;9.31;64.33
77587;BME280;66744;49.716;17.158;2023-06-04T04:02:42;99391.03;;;9.32;64.04
77587;BME280;66744;49.716;17.158;2023-06-04T04:05:51;99398.53;;;9.52;64.04
77587;BME280;66744;49.716;17.158;2023-06-04T04:08:54;99397.59;;;9.62;63.56
77587;BME280;66744;49.716;17.158;2023-06-04T04:11:56;99406.09;;;9.67;64.19
77587;BME280;66744;49.716;17.158;2023-06-04T04:15:01;99394.94;;;9.78;63.01
77587;BME280;66744;49.716;17.158;2023-06-04T04:18:04;99406.63;;;10.01;63.29
77587;BME280;66744;49.716;17.158;2023-06-04T04:21:09;99421.03;;;10.29;62.52
77587;BME280;66744;49.716;17.158;2023-06-04T04:24:25;99415.81;;;10.54;61.72
77587;BME280;66744;49.716;17.158;2023-06-04T04:27:31;99406.72;;;10.73;61.40
77587;BME280;66744;49.716;17.158;2023-06-04T04:30:36;99414.06;;;10.96;59.68
77587;BME280;66744;49.716;17.158;2023-06-04T04:33:41;99411.94;;;11.03;58.99
77587;BME280;66744;49.716;17.158;2023-06-04T04:36:49;99408.00;;;11.04;60.15
77587;BME280;66744;49.716;17.158;2023-06-04T04:39:56;99402.03;;;11.06;60.73
77587;BME280;66744;49.716;17.158;2023-06-04T04:43:00;99406.53;;;11.16;61.09
77587;BME280;66744;49.716;17.158;2023-06-04T04:46:02;99404.28;;;11.27;59.39
77587;BME280;66744;49.716;17.158;2023-06-04T04:49:04;99408.00;;;11.37;60.74
77587;BME280;66744;49.716;17.158;2023-06-04T04:52:06;99412.19;;;11.41;60.55
77587;BME280;66744;49.716;17.158;2023-06-04T04:55:08;99409.69;;;11.47;61.34
77587;BME280;66744;49.716;17.158;2023-06-04T04:58:12;99415.72;;;11.58;60.29
77587;BME280;66744;49.716;17.158;2023-06-04T05:01:19;99429.97;;;11.69;60.02
77587;BME280;66744;49.716;17.158;2023-06-04T05:04:21;99412.31;;;11.83;59.46
77587;BME280;66744;49.716;17.158;2023-06-04T05:07:22;99411.50;;;11.98;58.67
77587;BME280;66744;49.716;17.158;2023-06-04T05:10:25;99418.41;;;12.19;58.31
77587;BME280;66744;49.716;17.158;2023-06-04T05:13:27;99410.97;;;12.32;58.43
77587;BME280;66744;49.716;17.158;2023-06-04T05:16:34;99412.44;;;12.49;58.68
77587;BME280;66744;49.716;17.158;2023-06-04T05:19:41;99413.22;;;12.62;57.33
77587;BME280;66744;49.716;17.158;2023-06-04T05:22:44;99410.91;;;12.61;58.50
77587;BME280;66744;49.716;17.158;2023-06-04T05:25:46;99414.44;;;12.74;58.15
77587;BME280;66744;49.716;17.158;2023-06-04T05:28:52;99426.34;;;12.83;57.88
77587;BME280;66744;49.716;17.158;2023-06-04T05:31:54;99404.50;;;12.89;57.47
77587;BME280;66744;49.716;17.158;2023-06-04T05:35:03;99414.81;;;13.14;56.85
77587;BME280;66744;49.716;17.158;2023-06-04T05:38:08;99419.06;;;13.40;57.08
77587;BME280;66744;49.716;17.158;2023-06-04T05:41:19;99422.50;;;13.44;54.98
77587;BME280;66744;49.716;17.158;2023-06-04T05:44:25;99418.44;;;13.36;53.64
77587;BME280;66744;49.716;17.158;2023-06-04T05:47:29;99429.69;;;13.42;55.52
77587;BME280;66744;49.716;17.158;2023-06-04T05:50:31;99425.97;;;13.57;56.11
77587;BME280;66744;49.716;17.158;2023-06-04T05:53:33;99427.34;;;13.53;55.44
77587;BME280;66744;49.716;17.158;2023-06-04T05:56:35;99430.50;;;13.64;56.52
77587;BME280;66744;49.716;17.158;2023-06-04T05:59:37;99420.38;;;13.48;56.25
77587;BME280;66744;49.716;17.158;2023-06-04T06:02:45;99433.25;;;13.64;55.81
77587;BME280;66744;49.716;17.158;2023-06-04T06:06:03;99434.31;;;13.79;55.56
77587;BME280;66744;49.716;17.158;2023-06-04T06:09:09;99436.03;;;13.98;53.58
77587;BME280;66744;49.716;17.158;2023-06-04T06:12:10;99436.75;;;14.11;54.00
77587;BME280;66744;49.716;17.158;2023-06-04T06:15:13;99435.28;;;14.19;54.37
77587;BME280;66744;49.716;17.158;2023-06-04T06:18:17;99435.53;;;14.12;53.15
77587;BME280;66744;49.716;17.158;2023-06-04T06:21:18;99429.88;;;14.16;54.49
77587;BME280;66744;49.716;17.158;2023-06-04T06:24:21;99441.31;;;14.27;55.16
77587;BME280;66744;49.716;17.158;2023-06-04T06:27:23;99440.13;;;14.50;53.45
77587;BME280;66744;49.716;17.158;2023-06-04T06:30:24;99427.91;;;14.60;52.80
77587;BME280;66744;49.716;17.158;2023-06-04T06:33:28;99433.56;;;14.87;53.35
77587;BME280;66744;49.716;17.158;2023-06-04T06:36:29;99442.25;;;15.07;51.96
77587;BME280;66744;49.716;17.158;2023-06-04T06:39:31;99436.94;;;15.22;50.01
77587;BME280;66744;49.716;17.158;2023-06-04T06:42:33;99426.34;;;15.20;50.19
77587;BME280;66744;49.716;17.158;2023-06-04T06:45:37;99427.91;;;15.39;49.63
77587;BME280;66744;49.716;17.158;2023-06-04T06:48:39;99422.28;;;15.52;49.06
77587;BME280;66744;49.716;17.158;2023-06-04T06:51:43;99427.72;;;15.74;46.94
77587;BME280;66744;49.716;17.158;2023-06-04T06:54:45;99419.53;;;16.06;48.78
77587;BME280;66744;49.716;17.158;2023-06-04T06:57:47;99424.16;;;16.28;46.98
77587;BME280;66744;49.716;17.158;2023-06-04T07:00:49;99426.13;;;16.45;46.26
77587;BME280;66744;49.716;17.158;2023-06-04T07:03:50;99439.38;;;16.50;47.48
77587;BME280;66744;49.716;17.158;2023-06-04T07:06:52;99437.34;;;16.78;47.84
77587;BME280;66744;49.716;17.158;2023-06-04T07:09:53;99435.47;;;16.84;45.37
77587;BME280;66744;49.716;17.158;2023-06-04T07:12:55;99442.50;;;17.03;45.40
77587;BME280;66744;49.716;17.158;2023-06-04T07:15:58;99440.28;;;17.16;44.24
77587;BME280;66744;49.716;17.158;2023-06-04T07:19:01;99431.72;;;17.29;43.07
77587;BME280;66744;49.716;17.158;2023-06-04T07:22:04;99442.44;;;17.54;45.69
77587;BME280;66744;49.716;17.158;2023-06-04T07:25:08;99434.94;;;17.69;43.57
77587;BME280;66744;49.716;17.158;2023-06-04T07:28:10;99432.09;;;17.79;40.95
77587;BME280;66744;49.716;17.158;2023-06-04T07:31:15;99442.25;;;18.05;42.39
77587;BME280;66744;49.716;17.158;2023-06-04T07:34:17;99434.59;;;18.29;41.41
77587;BME280;66744;49.716;17.158;2023-06-04T07:37:19;99433.47;;;18.36;40.38
77587;BME280;66744;49.716;17.158;2023-06-04T07:40:26;99440.69;;;18.57;40.79
77587;BME280;66744;49.716;17.158;2023-06-04T07:43:55;99436.09;;;18.69;40.06
77587;BME280;66744;49.716;17.158;2023-06-04T07:46:56;99436.78;;;18.78;39.86
77587;BME280;66744;49.716;17.158;2023-06-04T07:50:06;99419.28;;;18.78;39.57
77587;BME280;66744;49.716;17.158;2023-06-04T07:53:11;99426.09;;;18.77;39.79
77587;BME280;66744;49.716;17.158;2023-06-04T07:56:15;99421.41;;;18.83;40.59
77587;BME280;66744;49.716;17.158;2023-06-04T07:59:17;99429.44;;;18.96;39.50
77587;BME280;66744;49.716;17.158;2023-06-04T08:02:21;99430.66;;;19.24;39.35
77587;BME280;66744;49.716;17.158;2023-06-04T08:05:23;99442.03;;;19.55;38.52
77587;BME280;66744;49.716;17.158;2023-06-04T08:08:27;99436.38;;;19.90;38.48
77587;BME280;66744;49.716;17.158;2023-06-04T08:11:31;99446.97;;;20.26;37.90
77587;BME280;66744;49.716;17.158;2023-06-04T08:14:32;99438.50;;;20.41;36.55
77587;BME280;66744;49.716;17.158;2023-06-04T08:17:37;99442.91;;;20.47;37.36
77587;BME280;66744;49.716;17.158;2023-06-04T08:20:38;99445.16;;;20.69;37.34
77587;BME280;66744;49.716;17.158;2023-06-04T08:23:40;99445.09;;;20.64;36.37
77587;BME280;66744;49.716;17.158;2023-06-04T08:26:43;99439.84;;;20.45;35.80
77587;BME280;66744;49.716;17.158;2023-06-04T08:29:48;99445.06;;;20.38;37.64
77587;BME280;66744;49.716;17.158;2023-06-04T08:32:49;99446.41;;;20.42;36.72
77587;BME280;66744;49.716;17.158;2023-06-04T08:35:52;99440.09;;;20.47;39.21
77587;BME280;66744;49.716;17.158;2023-06-04T08:39:35;99446.66;;;20.70;40.58
77587;BME280;66744;49.716;17.158;2023-06-04T08:42:58;99432.63;;;20.90;38.77
77587;BME280;66744;49.716;17.158;2023-06-04T08:46:03;99436.38;;;21.13;38.54
77587;BME280;66744;49.716;17.158;2023-06-04T08:49:12;99434.44;;;21.25;38.26
77587;BME280;66744;49.716;17.158;2023-06-04T08:52:13;99445.72;;;21.41;37.58
77587;BME280;66744;49.716;17.158;2023-06-04T08:55:18;99444.00;;;21.49;38.30
77587;BME280;66744;49.716;17.158;2023-06-04T08:58:21;99447.66;;;21.72;36.60
77587;BME280;66744;49.716;17.158;2023-06-04T09:01:27;99447.22;;;21.79;36.75
77587;BME280;66744;49.716;17.158;2023-06-04T09:04:32;99439.66;;;21.91;37.57
77587;BME280;66744;49.716;17.158;2023-06-04T09:07:35;99439.69;;;22.02;36.72
77587;BME280;66744;49.716;17.158;2023-06-04T09:10:38;99445.06;;;22.11;36.89
77587;BME280;66744;49.716;17.158;2023-06-04T09:13:43;99441.28;;;22.20;35.69
77587;BME280;66744;49.716;17.158;2023-06-04T09:16:52;99440.03;;;22.21;36.69
77587;BME280;66744;49.716;17.158;2023-06-04T10:01:52;99434.25;;;23.30;31.71
77587;BME280;66744;49.716;17.158;2023-06-04T10:05:16;99433.97;;;23.55;31.18
77587;BME280;66744;49.716;17.158;2023-06-04T10:13:48;99437.66;;;23.91;31.74
77587;BME280;66744;49.716;17.158;2023-06-04T10:18:36;99434.53;;;24.11;32.88
77587;BME280;66744;49.716;17.158;2023-06-04T11:42:57;99421.34;;;25.36;27.20
77587;BME280;66744;49.716;17.158;2023-06-04T11:50:50;99429.91;;;25.55;28.92
77587;BME280;66744;49.716;17.158;2023-06-04T11:54:23;99428.44;;;25.49;28.49
77587;BME280;66744;49.716;17.158;2023-06-04T11:58:29;99429.97;;;25.50;29.91
77587;BME280;66744;49.716;17.158;2023-06-04T12:01:45;99428.81;;;25.34;29.30
77587;BME280;66744;49.716;17.158;2023-06-04T12:05:18;99436.28;;;25.80;27.28
77587;BME280;66744;49.716;17.158;2023-06-04T12:12:39;99427.50;;;25.65;27.69
77587;BME280;66744;49.716;17.158;2023-06-04T12:15:58;99417.63;;;25.77;28.29
77587;BME280;66744;49.716;17.158;2023-06-04T12:57:56;99406.53;;;26.40;28.19
77587;BME280;66744;49.716;17.158;2023-06-04T13:15:52;99409.50;;;27.43;26.12
77587;BME280;66744;49.716;17.158;2023-06-04T13:19:47;99403.78;;;27.17;26.20
77587;BME280;66744;49.716;17.158;2023-06-04T13:23:21;99406.81;;;27.06;26.79
77587;BME280;66744;49.716;17.158;2023-06-04T13:32:08;99391.38;;;27.52;26.00
77587;BME280;66744;49.716;17.158;2023-06-04T13:35:45;99398.72;;;27.68;26.01
77587;BME280;66744;49.716;17.158;2023-06-04T13:40:00;99405.34;;;27.71;25.18
77587;BME280;66744;49.716;17.158;2023-06-04T13:43:41;99401.34;;;27.66;25.59
77587;BME280;66744;49.716;17.158;2023-06-04T13:46:46;99392.97;;;27.87;26.08
77587;BME280;66744;49.716;17.158;2023-06-04T13:49:48;99386.13;;;27.69;25.80
77587;BME280;66744;49.716;17.158;2023-06-04T13:52:55;99386.72;;;28.01;25.18
77587;BME280;66744;49.716;17.158;2023-06-04T13:56:24;99377.81;;;27.97;24.31
77587;BME280;66744;49.716;17.158;2023-06-04T14:04:16;99374.47;;;29.64;23.69
77587;BME280;66744;49.716;17.158;2023-06-04T14:07:33;99371.09;;;29.09;23.48
77587;BME280;66744;49.716;17.158;2023-06-04T14:11:03;99381.41;;;28.11;24.52
77587;BME280;66744;49.716;17.158;2023-06-04T14:14:46;99375.06;;;28.65;25.17
77587;BME280;66744;49.716;17.158;2023-06-04T14:42:25;99353.53;;;27.81;26.38
77587;BME280;66744;49.716;17.158;2023-06-04T14:46:08;99359.19;;;27.68;27.08
77587;BME280;66744;49.716;17.158;2023-06-04T14:49:15;99360.63;;;27.62;26.20
77587;BME280;66744;49.716;17.158;2023-06-04T14:53:05;99352.91;;;27.36;27.05
77587;BME280;66744;49.716;17.158;2023-06-04T14:56:18;99357.75;;;27.09;26.84
77587;BME280;66744;49.716;17.158;2023-06-04T14:59:28;99348.56;;;26.77;27.75
77587;BME280;66744;49.716;17.158;2023-06-04T15:02:32;99351.00;;;26.86;28.15
77587;BME280;66744;49.716;17.158;2023-06-04T15:05:36;99343.13;;;27.11;29.85
77587;BME280;66744;49.716;17.158;2023-06-04T15:09:09;99354.84;;;27.41;27.88
77587;BME280;66744;49.716;17.158;2023-06-04T15:12:57;99345.22;;;27.49;27.65
77587;BME280;66744;49.716;17.158;2023-06-04T15:16:01;99342.06;;;27.40;28.01
77587;BME280;66744;49.716;17.158;2023-06-04T15:19:06;99347.91;;;27.29;28.01
77587;BME280;66744;49.716;17.158;2023-06-04T15:22:12;99349.97;;;27.28;27.94
77587;BME280;66744;49.716;17.158;2023-06-04T15:25:37;99345.31;;;27.31;28.50
77587;BME280;66744;49.716;17.158;2023-06-04T15:32:59;99347.34;;;27.83;27.57
77587;BME280;66744;49.716;17.158;2023-06-04T15:37:11;99337.69;;;27.78;28.29
77587;BME280;66744;49.716;17.158;2023-06-04T15:40:54;99335.59;;;27.92;27.00
77587;BME280;66744;49.716;17.158;2023-06-04T15:44:23;99334.16;;;28.11;27.30
77587;BME280;66744;49.716;17.158;2023-06-04T15:48:06;99337.75;;;27.99;27.33
77587;BME280;66744;49.716;17.158;2023-06-04T15:51:56;99349.44;;;27.69;28.60
77587;BME280;66744;49.716;17.158;2023-06-04T15:56:06;99337.94;;;27.67;28.81
77587;BME280;66744;49.716;17.158;2023-06-04T16:08:38;99349.63;;;27.84;28.22
77587;BME280;66744;49.716;17.158;2023-06-04T16:12:39;99340.06;;;27.87;27.84
77587;BME280;66744;49.716;17.158;2023-06-04T16:16:34;99337.09;;;27.93;27.68
77587;BME280;66744;49.716;17.158;2023-06-04T16:20:08;99338.63;;;28.28;27.66
77587;BME280;66744;49.716;17.158;2023-06-04T16:23:35;99338.88;;;28.50;27.10
77587;BME280;66744;49.716;17.158;2023-06-04T16:27:15;99337.53;;;28.64;27.20
77587;BME280;66744;49.716;17.158;2023-06-04T16:30:37;99332.25;;;28.68;26.31
77587;BME280;66744;49.716;17.158;2023-06-04T16:34:36;99340.53;;;28.87;25.84
77587;BME280;66744;49.716;17.158;2023-06-04T16:37:41;99341.31;;;29.16;25.43
77587;BME280;66744;49.716;17.158;2023-06-04T16:41:08;99342.91;;;29.25;26.70
77587;BME280;66744;49.716;17.158;2023-06-04T16:44:15;99344.50;;;29.12;27.19
77587;BME280;66744;49.716;17.158;2023-06-04T16:47:26;99356.34;;;29.32;26.91
77587;BME280;66744;49.716;17.158;2023-06-04T16:50:50;99349.13;;;29.23;26.55
77587;BME280;66744;49.716;17.158;2023-06-04T16:54:07;99337.28;;;29.04;26.00
77587;BME280;66744;49.716;17.158;2023-06-04T16:57:21;99344.31;;;28.90;27.70
77587;BME280;66744;49.716;17.158;2023-06-04T17:00:33;99349.56;;;29.06;27.27
77587;BME280;66744;49.716;17.158;2023-06-04T17:04:24;99352.91;;;29.54;25.68
77587;BME280;66744;49.716;17.158;2023-06-04T17:07:36;99343.47;;;29.87;25.27
77587;BME280;66744;49.716;17.158;2023-06-04T17:10:45;99345.38;;;30.00;25.29
77587;BME280;66744;49.716;17.158;2023-06-04T17:18:30;99349.94;;;30.10;24.55
77587;BME280;66744;49.716;17.158;2023-06-04T17:21:42;99345.44;;;29.71;24.68
77587;BME280;66744;49.716;17.158;2023-06-04T17:25:10;99361.06;;;29.29;26.16
77587;BME280;66744;49.716;17.158;2023-06-04T17:28:17;99352.44;;;28.65;27.58
77587;BME280;66744;49.716;17.158;2023-06-04T17:31:26;99351.78;;;28.04;27.94
77587;BME280;66744;49.716;17.158;2023-06-04T17:34:43;99354.44;;;27.63;29.21
77587;BME280;66744;49.716;17.158;2023-06-04T17:37:49;99358.44;;;27.02;30.10
77587;BME280;66744;49.716;17.158;2023-06-04T17:41:22;99350.91;;;26.60;31.04
77587;BME280;66744;49.716;17.158;2023-06-04T17:44:36;99362.53;;;26.37;31.34
77587;BME280;66744;49.716;17.158;2023-06-04T17:47:57;99365.63;;;26.21;31.89
77587;BME280;66744;49.716;17.158;2023-06-04T17:51:14;99362.84;;;25.96;32.64
77587;BME280;66744;49.716;17.158;2023-06-04T17:54:26;99361.00;;;25.62;33.07
77587;BME280;66744;49.716;17.158;2023-06-04T17:57:50;99362.19;;;25.48;34.28
77587;BME280;66744;49.716;17.158;2023-06-04T18:04:39;99377.09;;;25.13;35.03
77587;BME280;66744;49.716;17.158;2023-06-04T18:08:18;99380.25;;;25.04;35.50
77587;BME280;66744;49.716;17.158;2023-06-04T18:11:55;99376.63;;;24.84;36.74
77587;BME280;66744;49.716;17.158;2023-06-04T18:15:43;99383.38;;;24.65;37.61
77587;BME280;66744;49.716;17.158;2023-06-04T18:23:25;99390.16;;;24.04;38.76
77587;BME280;66744;49.716;17.158;2023-06-04T18:26:44;99377.06;;;23.71;38.66
77587;BME280;66744;49.716;17.158;2023-06-04T18:29:52;99377.88;;;23.50;38.21
77587;BME280;66744;49.716;17.158;2023-06-04T18:32:59;99378.94;;;23.36;38.45
77587;BME280;66744;49.716;17.158;2023-06-04T19:02:04;99420.28;;;22.74;41.16
77587;BME280;66744;49.716;17.158;2023-06-04T20:45:27;99458.94;;;18.58;56.27
